createdAt,value
2019-03-24T00:00:28.690Z,44.40
2019-03-24T00:01:41.014Z,33.73
2019-03-24T00:02:42.943Z,42.43
2019-03-24T00:03:47.818Z,46.03
2019-03-24T00:04:52.652Z,39.50
2019-03-24T00:05:57.518Z,39.07
2019-03-24T00:07:02.365Z,47.53
2019-03-24T00:08:07.234Z,40.60
2019-03-24T00:09:12.126Z,33.10
2019-03-24T00:10:17.118Z,39.17
2019-03-24T00:11:22.109Z,48.17
2019-03-24T00:12:27.012Z,40.40
2019-03-24T00:13:31.862Z,42.70
2019-03-24T00:14:36.814Z,37.43
2019-03-24T00:15:41.736Z,36.70
2019-03-24T00:16:46.645Z,42.20
2019-03-24T00:17:51.592Z,36.40
2019-03-24T00:18:56.533Z,42.17
2019-03-24T00:20:01.391Z,40.00
2019-03-24T00:21:06.263Z,40.57
2019-03-24T00:22:11.133Z,39.60
2019-03-24T00:23:15.977Z,41.43
2019-03-24T00:24:20.794Z,31.27
2019-03-24T00:25:25.734Z,36.10
2019-03-24T00:26:30.655Z,35.00
2019-03-24T00:27:35.499Z,27.00
2019-03-24T00:28:40.369Z,43.70
2019-03-24T00:29:45.227Z,42.70
2019-03-24T00:30:50.086Z,39.80
2019-03-24T00:31:54.916Z,38.57
2019-03-24T00:32:59.792Z,32.47
2019-03-24T00:34:04.704Z,38.07
2019-03-24T00:35:10.016Z,41.37
2019-03-24T00:36:14.936Z,43.60
2019-03-24T00:37:19.852Z,46.43
2019-03-24T00:38:24.716Z,47.60
2019-03-24T00:39:29.573Z,43.30
2019-03-24T00:40:34.510Z,49.73
2019-03-24T00:41:39.424Z,36.93
2019-03-24T00:42:44.331Z,39.43
2019-03-24T00:43:49.161Z,41.77
2019-03-24T00:44:53.988Z,41.00
2019-03-24T00:45:58.826Z,43.43
2019-03-24T00:47:03.732Z,36.70
2019-03-24T00:48:08.591Z,36.67
2019-03-24T00:49:13.440Z,33.87
2019-03-24T00:50:18.270Z,45.93
2019-03-24T00:51:23.198Z,32.97
2019-03-24T00:52:28.207Z,47.17
2019-03-24T00:53:33.060Z,35.10
2019-03-24T00:54:37.904Z,46.10
2019-03-24T00:55:42.918Z,31.93
2019-03-24T00:56:47.783Z,35.90
2019-03-24T00:57:52.652Z,40.47
2019-03-24T00:58:57.500Z,32.40
2019-03-24T01:00:02.423Z,37.27
2019-03-24T01:01:07.283Z,35.07
2019-03-24T01:02:12.111Z,40.37
2019-03-24T01:03:17.492Z,39.70
2019-03-24T01:04:22.481Z,38.40
2019-03-24T01:05:27.325Z,45.27
2019-03-24T01:06:32.157Z,38.37
2019-03-24T01:07:37.155Z,35.47
2019-03-24T01:08:42.002Z,44.67
2019-03-24T01:09:46.853Z,37.27
2019-03-24T01:10:51.695Z,39.13
2019-03-24T01:11:56.631Z,35.40
2019-03-24T01:13:01.489Z,37.77
2019-03-24T01:14:06.474Z,40.10
2019-03-24T01:15:11.479Z,44.40
2019-03-24T01:16:16.310Z,45.93
2019-03-24T01:17:21.255Z,43.40
2019-03-24T01:18:26.172Z,43.23
2019-03-24T01:19:30.992Z,35.60
2019-03-24T01:20:35.812Z,42.67
2019-03-24T01:21:40.732Z,38.73
2019-03-24T01:22:45.635Z,41.13
2019-03-24T01:23:50.500Z,30.53
2019-03-24T01:24:55.369Z,40.90
2019-03-24T01:26:00.238Z,39.70
2019-03-24T01:27:06.012Z,32.93
2019-03-24T01:28:10.908Z,34.40
2019-03-24T01:29:15.761Z,44.60
2019-03-24T01:30:21.636Z,36.67
2019-03-24T01:31:26.460Z,28.33
2019-03-24T01:32:31.305Z,36.50
2019-03-24T01:33:36.136Z,39.90
2019-03-24T01:34:41.032Z,42.20
2019-03-24T01:35:45.854Z,32.27
2019-03-24T01:36:50.671Z,27.87
2019-03-24T01:37:55.522Z,38.00
2019-03-24T01:39:00.382Z,31.37
2019-03-24T01:40:05.535Z,34.87
2019-03-24T01:41:10.420Z,38.77
2019-03-24T01:42:15.366Z,32.70
2019-03-24T01:43:20.210Z,34.83
2019-03-24T01:44:25.081Z,41.10
2019-03-24T01:45:29.973Z,38.40
2019-03-24T01:46:34.874Z,32.60
2019-03-24T01:47:39.755Z,34.93
2019-03-24T01:48:44.609Z,40.70
2019-03-24T01:49:49.518Z,37.13
2019-03-24T01:50:54.475Z,38.50
2019-03-24T01:51:59.332Z,31.80
2019-03-24T01:53:04.284Z,34.63
2019-03-24T01:54:09.171Z,38.53
2019-03-24T01:55:14.264Z,41.83
2019-03-24T01:56:19.173Z,30.50
2019-03-24T01:57:23.995Z,35.57
2019-03-24T01:58:28.836Z,35.93
2019-03-24T01:59:33.717Z,33.23
2019-03-24T02:00:38.903Z,32.77
2019-03-24T02:01:43.832Z,34.67
2019-03-24T02:02:48.705Z,38.00
2019-03-24T02:03:53.564Z,33.23
2019-03-24T02:04:58.452Z,39.43
2019-03-24T02:06:03.423Z,39.27
2019-03-24T02:07:08.313Z,28.87
2019-03-24T02:08:13.182Z,42.50
2019-03-24T02:09:18.034Z,34.33
2019-03-24T02:10:22.968Z,39.40
2019-03-24T02:11:28.041Z,29.90
2019-03-24T02:12:32.966Z,37.47
2019-03-24T02:13:37.818Z,42.57
2019-03-24T02:14:42.741Z,40.07
2019-03-24T02:15:47.575Z,36.60
2019-03-24T02:17:01.673Z,39.73
2019-03-24T02:18:25.563Z,29.77
2019-03-24T02:19:30.432Z,37.90
2019-03-24T02:20:35.304Z,37.90
2019-03-24T02:21:40.161Z,34.80
2019-03-24T02:22:45.059Z,44.90
2019-03-24T02:23:49.914Z,41.97
2019-03-24T02:24:54.758Z,36.23
2019-03-24T02:25:59.600Z,37.87
2019-03-24T02:27:04.436Z,31.43
2019-03-24T02:28:09.279Z,35.90
2019-03-24T02:29:14.111Z,35.13
2019-03-24T02:30:19.095Z,41.03
2019-03-24T02:31:23.927Z,33.07
2019-03-24T02:32:28.863Z,37.77
2019-03-24T02:33:33.724Z,31.03
2019-03-24T02:34:38.597Z,39.50
2019-03-24T02:35:43.467Z,35.60
2019-03-24T02:36:48.505Z,36.77
2019-03-24T02:37:53.353Z,43.57
2019-03-24T02:38:58.266Z,34.43
2019-03-24T02:40:03.274Z,40.97
2019-03-24T02:41:08.150Z,33.90
2019-03-24T02:42:12.985Z,42.03
2019-03-24T02:43:17.808Z,38.13
2019-03-24T02:44:22.744Z,42.27
2019-03-24T02:45:27.590Z,33.80
2019-03-24T02:46:32.527Z,36.43
2019-03-24T02:47:37.408Z,34.80
2019-03-24T02:48:42.295Z,34.47
2019-03-24T02:49:47.209Z,38.47
2019-03-24T02:50:52.072Z,30.83
2019-03-24T02:51:56.908Z,38.40
2019-03-24T02:53:01.921Z,36.23
2019-03-24T02:54:07.046Z,39.30
2019-03-24T02:55:12.052Z,31.87
2019-03-24T02:56:17.001Z,32.10
2019-03-24T02:57:21.983Z,43.07
2019-03-24T02:58:26.822Z,39.57
2019-03-24T02:59:31.697Z,36.63
2019-03-24T03:00:36.856Z,39.07
2019-03-24T03:01:41.727Z,40.30
2019-03-24T03:02:46.677Z,41.77
2019-03-24T03:03:51.513Z,33.77
2019-03-24T03:04:56.503Z,33.27
2019-03-24T03:06:01.394Z,39.63
2019-03-24T03:07:06.310Z,41.03
2019-03-24T03:08:11.183Z,36.63
2019-03-24T03:09:16.098Z,34.73
2019-03-24T03:10:21.473Z,29.20
2019-03-24T03:11:26.434Z,40.47
2019-03-24T03:12:31.341Z,32.77
2019-03-24T03:13:36.200Z,43.20
2019-03-24T03:14:41.140Z,39.47
2019-03-24T03:15:46.119Z,32.57
2019-03-24T03:16:51.032Z,34.10
2019-03-24T03:17:55.863Z,39.87
2019-03-24T03:19:00.732Z,34.40
2019-03-24T03:20:06.587Z,36.93
2019-03-24T03:21:11.506Z,37.70
2019-03-24T03:22:16.533Z,37.03
2019-03-24T03:23:21.441Z,36.00
2019-03-24T03:24:26.431Z,42.33
2019-03-24T03:25:31.345Z,33.47
2019-03-24T03:26:36.247Z,38.07
2019-03-24T03:27:41.145Z,41.00
2019-03-24T03:28:46.673Z,34.43
2019-03-24T03:29:51.494Z,34.30
2019-03-24T03:30:56.525Z,45.53
2019-03-24T03:32:01.402Z,33.20
2019-03-24T03:33:06.246Z,36.80
2019-03-24T03:34:11.176Z,39.30
2019-03-24T03:35:16.339Z,37.27
2019-03-24T03:36:21.273Z,39.20
2019-03-24T03:37:26.221Z,38.13
2019-03-24T03:38:31.230Z,33.33
2019-03-24T03:39:36.120Z,30.33
2019-03-24T03:40:41.146Z,43.07
2019-03-24T03:41:46.085Z,40.53
2019-03-24T03:42:51.072Z,33.77
2019-03-24T03:43:56.003Z,35.87
2019-03-24T03:45:00.973Z,40.77
2019-03-24T03:46:06.341Z,41.13
2019-03-24T03:47:11.199Z,27.83
2019-03-24T03:48:16.088Z,33.20
2019-03-24T03:49:21.018Z,44.93
2019-03-24T03:50:25.968Z,40.87
2019-03-24T03:51:30.890Z,36.13
2019-03-24T03:52:35.861Z,30.83
2019-03-24T03:53:40.773Z,45.20
2019-03-24T03:54:45.648Z,44.80
2019-03-24T03:55:50.526Z,41.07
2019-03-24T03:56:55.465Z,39.63
2019-03-24T03:58:00.327Z,46.10
2019-03-24T03:59:05.273Z,33.57
2019-03-24T04:00:10.500Z,34.90
2019-03-24T04:01:15.366Z,30.17
2019-03-24T04:02:20.228Z,29.27
2019-03-24T04:03:25.072Z,34.60
2019-03-24T04:04:29.923Z,43.70
2019-03-24T04:05:34.846Z,37.23
2019-03-24T04:06:39.784Z,37.57
2019-03-24T04:07:44.675Z,35.97
2019-03-24T04:08:49.545Z,43.23
2019-03-24T04:09:54.543Z,37.23
2019-03-24T04:10:59.484Z,27.73
2019-03-24T04:12:04.483Z,29.33
2019-03-24T04:13:09.367Z,39.73
2019-03-24T04:14:14.334Z,37.33
2019-03-24T04:15:19.228Z,35.40
2019-03-24T04:16:24.112Z,39.13
2019-03-24T04:17:29.014Z,34.93
2019-03-24T04:18:33.896Z,35.17
2019-03-24T04:19:38.800Z,29.60
2019-03-24T04:21:08.095Z,33.40
2019-03-24T04:22:12.937Z,35.97
2019-03-24T04:23:18.039Z,39.27
2019-03-24T04:24:22.893Z,29.67
2019-03-24T04:25:27.767Z,33.47
2019-03-24T04:26:32.600Z,34.03
2019-03-24T04:27:37.579Z,38.30
2019-03-24T04:28:42.406Z,38.57
2019-03-24T04:29:48.165Z,31.77
2019-03-24T04:30:53.044Z,35.67
2019-03-24T04:31:58.029Z,36.93
2019-03-24T04:33:02.891Z,35.60
2019-03-24T04:34:07.800Z,33.17
2019-03-24T04:35:12.826Z,35.10
2019-03-24T04:36:17.827Z,36.77
2019-03-24T04:37:22.695Z,33.50
2019-03-24T04:38:27.601Z,40.13
2019-03-24T04:39:32.486Z,36.87
2019-03-24T04:40:37.391Z,42.47
2019-03-24T04:41:42.243Z,37.70
2019-03-24T04:42:47.096Z,30.70
2019-03-24T04:43:51.965Z,44.23
2019-03-24T04:44:56.795Z,37.90
2019-03-24T04:46:01.630Z,39.27
2019-03-24T04:47:16.144Z,38.30
2019-03-24T04:48:13.127Z,37.03
2019-03-24T04:49:17.947Z,41.77
2019-03-24T04:50:22.780Z,38.03
2019-03-24T04:51:27.650Z,29.70
2019-03-24T04:52:32.534Z,39.23
2019-03-24T04:53:37.358Z,29.90
2019-03-24T04:54:42.220Z,35.67
2019-03-24T04:55:47.054Z,38.77
2019-03-24T04:56:52.112Z,29.60
2019-03-24T04:57:57.150Z,35.47
2019-03-24T04:59:02.140Z,32.90
2019-03-24T05:00:09.296Z,39.57
2019-03-24T05:01:14.183Z,32.07
2019-03-24T05:02:19.032Z,41.33
2019-03-24T05:03:23.916Z,34.77
2019-03-24T05:04:28.815Z,29.17
2019-03-24T05:05:34.323Z,36.23
2019-03-24T05:06:39.274Z,43.83
2019-03-24T05:07:44.270Z,34.53
2019-03-24T05:08:49.856Z,34.70
2019-03-24T05:09:55.067Z,48.00
2019-03-24T05:10:59.958Z,27.73
2019-03-24T05:12:04.871Z,38.90
2019-03-24T05:13:09.706Z,36.93
2019-03-24T05:14:14.691Z,31.70
2019-03-24T05:15:19.536Z,33.37
2019-03-24T05:16:24.382Z,28.07
2019-03-24T05:17:29.246Z,36.10
2019-03-24T05:18:34.169Z,32.63
2019-03-24T05:19:39.090Z,31.00
2019-03-24T05:20:43.958Z,27.67
2019-03-24T05:21:48.854Z,34.97
2019-03-24T05:22:53.862Z,45.80
2019-03-24T05:23:58.745Z,34.77
2019-03-24T05:25:03.737Z,31.07
2019-03-24T05:26:08.613Z,40.60
2019-03-24T05:27:13.454Z,37.03
2019-03-24T05:28:18.294Z,38.10
2019-03-24T05:29:23.224Z,38.03
2019-03-24T05:30:28.110Z,35.83
2019-03-24T05:31:32.979Z,32.13
2019-03-24T05:32:37.923Z,35.60
2019-03-24T05:33:42.881Z,28.33
2019-03-24T05:34:47.735Z,31.77
2019-03-24T05:35:52.619Z,31.63
2019-03-24T05:36:57.579Z,31.90
2019-03-24T05:38:02.647Z,35.23
2019-03-24T05:39:08.070Z,41.63
2019-03-24T05:40:12.977Z,34.83
2019-03-24T05:41:17.832Z,35.70
2019-03-24T05:42:22.722Z,29.90
2019-03-24T05:43:27.635Z,33.67
2019-03-24T05:44:32.564Z,27.37
2019-03-24T05:45:37.399Z,26.30
2019-03-24T05:46:42.317Z,32.50
2019-03-24T05:47:47.182Z,39.70
2019-03-24T05:48:52.078Z,36.60
2019-03-24T05:49:57.096Z,36.37
2019-03-24T05:51:02.015Z,35.77
2019-03-24T05:52:06.844Z,31.97
2019-03-24T05:53:11.757Z,25.53
2019-03-24T05:54:16.597Z,25.33
2019-03-24T05:55:21.559Z,29.73
2019-03-24T05:56:26.409Z,33.93
2019-03-24T05:57:31.390Z,29.07
2019-03-24T05:58:36.393Z,38.23
2019-03-24T05:59:41.245Z,29.53
2019-03-24T06:00:46.137Z,27.70
2019-03-24T06:01:51.091Z,31.77
2019-03-24T06:02:57.343Z,26.23
2019-03-24T06:04:02.565Z,30.20
2019-03-24T06:05:07.688Z,41.67
2019-03-24T06:06:12.699Z,41.30
2019-03-24T06:07:17.573Z,36.03
2019-03-24T06:08:22.554Z,41.27
2019-03-24T06:09:27.521Z,32.43
2019-03-24T06:10:32.418Z,35.60
2019-03-24T06:11:37.304Z,28.50
2019-03-24T06:12:42.233Z,32.90
2019-03-24T06:13:47.167Z,33.00
2019-03-24T06:14:52.088Z,29.83
2019-03-24T06:15:57.057Z,29.83
2019-03-24T06:17:02.002Z,33.63
2019-03-24T06:18:06.931Z,27.17
2019-03-24T06:19:11.856Z,36.30
2019-03-24T06:20:16.798Z,24.63
2019-03-24T06:21:21.746Z,34.70
2019-03-24T06:22:26.612Z,33.90
2019-03-24T06:23:31.555Z,32.33
2019-03-24T06:24:36.493Z,22.97
2019-03-24T06:25:41.791Z,24.97
2019-03-24T06:26:46.650Z,31.03
2019-03-24T06:27:51.542Z,39.70
2019-03-24T06:28:56.512Z,29.87
2019-03-24T06:30:01.474Z,34.60
2019-03-24T06:31:06.320Z,34.67
2019-03-24T06:32:11.164Z,26.70
2019-03-24T06:33:16.142Z,29.80
2019-03-24T06:34:21.036Z,30.63
2019-03-24T06:35:25.885Z,36.83
2019-03-24T06:36:30.759Z,36.03
2019-03-24T06:37:35.746Z,30.13
2019-03-24T06:38:40.793Z,33.30
2019-03-24T06:39:45.741Z,30.23
2019-03-24T06:40:50.650Z,30.20
2019-03-24T06:41:55.572Z,26.43
2019-03-24T06:43:00.595Z,30.60
2019-03-24T06:44:05.539Z,29.20
2019-03-24T06:45:11.166Z,42.30
2019-03-24T06:46:15.995Z,30.37
2019-03-24T06:47:20.970Z,25.77
2019-03-24T06:48:25.930Z,31.13
2019-03-24T06:49:30.854Z,29.37
2019-03-24T06:50:35.813Z,30.10
2019-03-24T06:51:40.755Z,28.20
2019-03-24T06:52:45.716Z,37.70
2019-03-24T06:53:50.569Z,33.50
2019-03-24T06:54:55.534Z,21.50
2019-03-24T06:56:00.792Z,28.00
2019-03-24T06:57:05.833Z,24.30
2019-03-24T06:58:10.709Z,29.73
2019-03-24T06:59:15.635Z,27.63
2019-03-24T07:00:20.698Z,32.83
2019-03-24T07:01:25.615Z,34.23
2019-03-24T07:02:30.515Z,33.53
2019-03-24T07:03:35.360Z,25.37
2019-03-24T07:04:40.194Z,28.70
2019-03-24T07:05:45.154Z,34.03
2019-03-24T07:06:50.034Z,25.87
2019-03-24T07:07:54.895Z,24.73
2019-03-24T07:08:59.767Z,30.57
2019-03-24T07:10:05.136Z,32.23
2019-03-24T07:11:13.630Z,24.33
2019-03-24T07:12:16.545Z,30.23
2019-03-24T07:13:21.503Z,20.40
2019-03-24T07:14:26.345Z,28.10
2019-03-24T07:15:31.296Z,28.90
2019-03-24T07:16:36.315Z,31.53
2019-03-24T07:17:41.233Z,27.10
2019-03-24T07:18:46.192Z,26.90
2019-03-24T07:19:51.114Z,26.43
2019-03-24T07:20:56.106Z,26.37
2019-03-24T07:22:01.033Z,28.40
2019-03-24T07:23:05.977Z,26.47
2019-03-24T07:24:10.902Z,26.53
2019-03-24T07:25:15.754Z,25.03
2019-03-24T07:26:20.709Z,29.70
2019-03-24T07:27:25.562Z,31.60
2019-03-24T07:28:30.430Z,29.43
2019-03-24T07:29:35.355Z,27.93
2019-03-24T07:30:40.258Z,24.97
2019-03-24T07:31:45.170Z,28.80
2019-03-24T07:32:50.036Z,27.07
2019-03-24T07:33:54.871Z,33.60
2019-03-24T07:34:59.822Z,34.73
2019-03-24T07:36:05.155Z,26.03
2019-03-24T07:37:10.003Z,24.20
2019-03-24T07:38:14.862Z,28.30
2019-03-24T07:39:19.849Z,39.27
2019-03-24T07:40:24.704Z,29.40
2019-03-24T07:41:29.647Z,33.10
2019-03-24T07:42:34.538Z,25.40
2019-03-24T07:43:39.367Z,33.57
2019-03-24T07:44:44.225Z,35.23
2019-03-24T07:45:49.070Z,25.73
2019-03-24T07:46:54.103Z,22.27
2019-03-24T07:47:59.095Z,34.27
2019-03-24T07:49:04.146Z,27.23
2019-03-24T07:50:09.826Z,27.07
2019-03-24T07:51:14.782Z,28.80
2019-03-24T07:52:19.693Z,23.60
2019-03-24T07:53:24.589Z,30.50
2019-03-24T07:54:29.515Z,31.37
2019-03-24T07:55:34.843Z,26.30
2019-03-24T07:56:39.678Z,28.03
2019-03-24T07:57:44.591Z,29.13
2019-03-24T07:58:49.435Z,33.67
2019-03-24T07:59:54.260Z,28.07
2019-03-24T08:00:59.447Z,31.60
2019-03-24T08:02:04.487Z,33.40
2019-03-24T08:03:09.346Z,32.87
2019-03-24T08:04:14.163Z,26.47
2019-03-24T08:05:19.102Z,28.00
2019-03-24T08:06:24.094Z,27.67
2019-03-24T08:07:28.938Z,24.83
2019-03-24T08:08:43.836Z,24.17
2019-03-24T08:09:40.528Z,40.13
2019-03-24T08:10:45.543Z,32.77
2019-03-24T08:11:50.547Z,31.80
2019-03-24T08:12:55.800Z,26.17
2019-03-24T08:14:00.785Z,24.77
2019-03-24T08:15:06.143Z,24.63
2019-03-24T08:16:10.963Z,23.07
2019-03-24T08:17:15.933Z,31.53
2019-03-24T08:18:29.555Z,24.43
2019-03-24T08:19:27.467Z,24.60
2019-03-24T08:20:32.312Z,25.67
2019-03-24T08:21:37.241Z,25.30
2019-03-24T08:22:42.137Z,29.13
2019-03-24T08:23:47.079Z,27.60
2019-03-24T08:24:51.946Z,25.60
2019-03-24T08:25:56.844Z,36.40
2019-03-24T08:27:01.785Z,25.50
2019-03-24T08:28:06.844Z,24.77
2019-03-24T08:29:11.764Z,20.70
2019-03-24T08:30:21.929Z,29.20
2019-03-24T08:31:26.843Z,24.10
2019-03-24T08:32:31.759Z,30.00
2019-03-24T08:33:36.675Z,26.37
2019-03-24T08:34:41.549Z,27.27
2019-03-24T08:35:46.516Z,19.37
2019-03-24T08:36:51.429Z,26.70
2019-03-24T08:37:56.308Z,20.27
2019-03-24T08:39:01.168Z,26.27
2019-03-24T08:40:06.208Z,28.47
2019-03-24T08:41:11.174Z,26.00
2019-03-24T08:42:16.315Z,20.80
2019-03-24T08:43:21.208Z,26.37
2019-03-24T08:44:26.124Z,31.63
2019-03-24T08:45:31.160Z,24.80
2019-03-24T08:46:35.985Z,29.00
2019-03-24T08:47:40.847Z,30.13
2019-03-24T08:48:45.695Z,27.37
2019-03-24T08:49:50.591Z,19.50
2019-03-24T08:50:55.555Z,30.03
2019-03-24T08:52:00.399Z,22.53
2019-03-24T08:53:05.446Z,31.43
2019-03-24T08:54:10.277Z,23.60
2019-03-24T08:55:15.187Z,24.13
2019-03-24T08:56:20.116Z,28.57
2019-03-24T08:57:25.047Z,24.70
2019-03-24T08:58:29.881Z,25.17
2019-03-24T08:59:34.795Z,26.57
2019-03-24T09:00:39.854Z,29.40
2019-03-24T09:01:44.714Z,21.03
2019-03-24T09:02:49.624Z,24.83
2019-03-24T09:03:54.547Z,21.97
2019-03-24T09:04:59.388Z,17.73
2019-03-24T09:06:04.315Z,21.87
2019-03-24T09:07:09.235Z,21.30
2019-03-24T09:08:14.205Z,20.27
2019-03-24T09:09:19.162Z,24.40
2019-03-24T09:10:24.143Z,22.60
2019-03-24T09:11:31.407Z,25.37
2019-03-24T09:12:35.629Z,22.00
2019-03-24T09:13:40.559Z,21.73
2019-03-24T09:14:45.367Z,25.63
2019-03-24T09:15:50.205Z,24.40
2019-03-24T09:16:55.125Z,21.37
2019-03-24T09:18:02.411Z,22.13
2019-03-24T09:19:24.977Z,25.80
2019-03-24T09:20:29.839Z,18.70
2019-03-24T09:21:34.839Z,21.07
2019-03-24T09:22:39.787Z,21.37
2019-03-24T09:23:44.652Z,23.00
2019-03-24T09:24:49.555Z,27.03
2019-03-24T09:25:54.534Z,26.50
2019-03-24T09:26:59.474Z,20.30
2019-03-24T09:28:04.599Z,19.40
2019-03-24T09:29:09.523Z,23.93
2019-03-24T09:30:31.035Z,24.03
2019-03-24T09:31:40.312Z,24.53
2019-03-24T09:32:45.178Z,19.70
2019-03-24T09:33:51.201Z,30.53
2019-03-24T09:34:57.646Z,25.40
2019-03-24T09:36:04.509Z,20.70
2019-03-24T09:37:09.485Z,22.20
2019-03-24T09:38:17.239Z,26.47
2019-03-24T09:39:24.062Z,24.67
2019-03-24T09:40:30.356Z,21.83
2019-03-24T09:41:35.289Z,24.57
2019-03-24T09:42:40.188Z,21.97
2019-03-24T09:43:45.243Z,34.77
2019-03-24T09:44:50.082Z,20.33
2019-03-24T09:45:56.174Z,24.20
2019-03-24T09:47:01.389Z,24.97
2019-03-24T09:48:07.542Z,23.97
2019-03-24T09:49:12.503Z,19.73
2019-03-24T09:50:17.436Z,20.30
2019-03-24T09:51:22.366Z,22.17
2019-03-24T09:52:27.210Z,23.67
2019-03-24T09:53:32.076Z,23.93
2019-03-24T09:54:38.354Z,23.27
2019-03-24T09:55:43.265Z,17.23
2019-03-24T09:56:48.114Z,23.80
2019-03-24T09:57:52.955Z,24.20
2019-03-24T09:58:57.810Z,23.53
2019-03-24T10:00:02.818Z,30.57
2019-03-24T10:01:07.649Z,24.30
2019-03-24T10:02:12.563Z,22.63
2019-03-24T10:03:17.436Z,29.87
2019-03-24T10:04:22.351Z,29.10
2019-03-24T10:05:27.285Z,21.03
2019-03-24T10:06:32.187Z,26.33
2019-03-24T10:07:37.120Z,30.13
2019-03-24T10:08:47.075Z,22.00
2019-03-24T10:09:48.482Z,22.50
2019-03-24T10:10:53.384Z,25.00
2019-03-24T10:11:58.215Z,20.17
2019-03-24T10:13:03.051Z,29.37
2019-03-24T10:14:07.880Z,25.10
2019-03-24T10:15:12.807Z,22.73
2019-03-24T10:16:17.635Z,20.00
2019-03-24T10:17:22.499Z,29.50
2019-03-24T10:18:27.337Z,25.37
2019-03-24T10:19:32.200Z,22.63
2019-03-24T10:20:37.087Z,23.47
2019-03-24T10:21:41.921Z,26.10
2019-03-24T10:22:46.771Z,22.97
2019-03-24T10:23:51.611Z,22.30
2019-03-24T10:24:56.675Z,20.63
2019-03-24T10:26:01.499Z,16.63
2019-03-24T10:27:06.402Z,15.93
2019-03-24T10:28:11.249Z,18.13
2019-03-24T10:29:16.075Z,23.53
2019-03-24T10:30:20.932Z,23.53
2019-03-24T10:31:25.794Z,20.43
2019-03-24T10:32:33.863Z,23.07
2019-03-24T10:33:38.738Z,19.33
2019-03-24T10:34:43.583Z,24.13
2019-03-24T10:35:48.472Z,17.57
2019-03-24T10:36:53.403Z,18.47
2019-03-24T10:37:58.239Z,22.97
2019-03-24T10:39:03.895Z,23.80
2019-03-24T10:40:10.089Z,15.33
2019-03-24T10:41:15.027Z,20.50
2019-03-24T10:42:23.125Z,19.43
2019-03-24T10:43:28.073Z,20.77
2019-03-24T10:44:32.918Z,20.60
2019-03-24T10:45:37.821Z,19.17
2019-03-24T10:46:42.692Z,18.80
2019-03-24T10:47:47.594Z,13.97
2019-03-24T10:48:52.442Z,13.17
2019-03-24T10:49:57.336Z,18.37
2019-03-24T10:51:02.345Z,16.83
2019-03-24T10:52:07.264Z,19.70
2019-03-24T10:53:12.101Z,18.70
2019-03-24T10:54:16.955Z,15.67
2019-03-24T10:55:21.833Z,15.00
2019-03-24T10:56:26.694Z,13.33
2019-03-24T10:57:31.521Z,12.00
2019-03-24T10:58:36.455Z,11.10
2019-03-24T10:59:41.368Z,15.17
2019-03-24T11:00:46.595Z,15.70
2019-03-24T11:01:51.505Z,14.77
2019-03-24T11:02:56.346Z,15.27
2019-03-24T11:04:01.210Z,17.60
2019-03-24T11:05:06.934Z,13.83
2019-03-24T11:06:11.875Z,20.57
2019-03-24T11:07:16.808Z,14.53
2019-03-24T11:08:21.647Z,17.53
2019-03-24T11:09:26.521Z,15.20
2019-03-24T11:10:31.339Z,18.83
2019-03-24T11:11:36.255Z,17.07
2019-03-24T11:12:41.205Z,18.53
2019-03-24T11:13:46.126Z,15.60
2019-03-24T11:14:51.052Z,14.10
2019-03-24T11:15:55.942Z,17.03
2019-03-24T11:17:00.919Z,11.90
2019-03-24T11:18:05.936Z,15.87
2019-03-24T11:19:10.783Z,14.63
2019-03-24T11:20:16.063Z,17.77
2019-03-24T11:21:20.917Z,19.00
2019-03-24T11:22:25.854Z,20.20
2019-03-24T11:23:30.728Z,15.97
2019-03-24T11:24:35.612Z,15.70
2019-03-24T11:25:40.560Z,14.27
2019-03-24T11:26:45.463Z,22.57
2019-03-24T11:27:50.288Z,16.17
2019-03-24T11:28:55.150Z,12.60
2019-03-24T11:30:00.153Z,12.83
2019-03-24T11:31:05.408Z,14.67
2019-03-24T11:32:10.296Z,14.40
2019-03-24T11:33:15.208Z,14.53
2019-03-24T11:34:20.071Z,14.23
2019-03-24T11:35:25.074Z,14.40
2019-03-24T11:36:30.141Z,14.10
2019-03-24T11:37:35.047Z,12.37
2019-03-24T11:38:39.874Z,16.63
2019-03-24T11:39:44.818Z,22.13
2019-03-24T11:40:49.682Z,13.67
2019-03-24T11:41:54.517Z,15.93
2019-03-24T11:42:59.348Z,14.77
2019-03-24T11:44:04.480Z,11.60
2019-03-24T11:45:10.471Z,12.93
2019-03-24T11:46:15.295Z,14.73
2019-03-24T11:47:26.515Z,16.13
2019-03-24T11:48:26.783Z,14.30
2019-03-24T11:49:31.670Z,18.40
2019-03-24T11:50:36.676Z,13.17
2019-03-24T11:51:41.599Z,12.40
2019-03-24T11:52:46.434Z,12.47
2019-03-24T11:53:51.326Z,17.20
2019-03-24T11:54:56.180Z,11.00
2019-03-24T11:56:01.067Z,13.80
2019-03-24T11:57:05.904Z,14.57
2019-03-24T11:58:10.757Z,17.50
2019-03-24T11:59:15.622Z,14.47
2019-03-24T12:00:28.278Z,13.23
2019-03-24T12:01:38.229Z,12.50
2019-03-24T12:02:39.699Z,13.40
2019-03-24T12:03:44.566Z,14.20
2019-03-24T12:04:49.525Z,13.03
2019-03-24T12:05:54.447Z,11.23
2019-03-24T12:06:59.363Z,14.75
2019-03-24T12:08:04.403Z,13.38
2019-03-24T12:09:09.323Z,10.60
2019-03-24T12:10:14.411Z,10.20
2019-03-24T12:11:19.240Z,10.95
2019-03-24T12:12:24.074Z,10.35
2019-03-24T12:13:28.919Z,10.15
2019-03-24T12:14:33.778Z,9.33
2019-03-24T12:15:38.646Z,11.85
2019-03-24T12:16:43.578Z,12.35
2019-03-24T12:17:48.475Z,12.00
2019-03-24T12:18:53.344Z,10.97
2019-03-24T12:19:58.184Z,9.93
2019-03-24T12:21:02.999Z,13.83
2019-03-24T12:22:07.999Z,11.37
2019-03-24T12:23:12.908Z,13.73
2019-03-24T12:24:17.742Z,14.47
2019-03-24T12:25:22.734Z,15.20
2019-03-24T12:26:27.690Z,9.97
2019-03-24T12:27:32.507Z,12.70
2019-03-24T12:28:37.412Z,13.83
2019-03-24T12:29:42.304Z,12.43
2019-03-24T12:30:47.161Z,16.12
2019-03-24T12:31:52.043Z,11.15
2019-03-24T12:32:56.955Z,12.20
2019-03-24T12:34:01.822Z,13.80
2019-03-24T12:35:07.420Z,11.53
2019-03-24T12:36:12.263Z,12.18
2019-03-24T12:37:17.235Z,9.60
2019-03-24T12:38:22.062Z,10.43
2019-03-24T12:39:26.959Z,11.43
2019-03-24T12:40:31.866Z,11.60
2019-03-24T12:41:36.694Z,10.35
2019-03-24T12:42:41.547Z,10.18
2019-03-24T12:43:47.991Z,10.48
2019-03-24T12:44:52.829Z,11.45
2019-03-24T12:45:57.720Z,9.23
2019-03-24T12:47:02.557Z,12.00
2019-03-24T12:48:07.432Z,12.28
2019-03-24T12:49:12.336Z,10.65
2019-03-24T12:50:17.247Z,15.65
2019-03-24T12:51:22.090Z,11.10
2019-03-24T12:52:26.941Z,14.90
2019-03-24T12:53:31.798Z,11.38
2019-03-24T12:54:36.660Z,18.87
2019-03-24T12:55:41.482Z,14.47
2019-03-24T12:56:46.327Z,13.40
2019-03-24T12:57:51.215Z,14.70
2019-03-24T12:58:56.134Z,12.95
2019-03-24T13:00:00.974Z,12.47
2019-03-24T13:01:05.892Z,12.15
2019-03-24T13:02:10.736Z,12.28
2019-03-24T13:03:15.583Z,10.50
2019-03-24T13:04:20.484Z,9.85
2019-03-24T13:05:25.336Z,10.15
2019-03-24T13:06:30.178Z,8.40
2019-03-24T13:07:35.183Z,8.35
2019-03-24T13:08:39.982Z,9.68
2019-03-24T13:09:44.895Z,9.23
2019-03-24T13:10:50.378Z,8.75
2019-03-24T13:11:55.212Z,12.98
2019-03-24T13:13:00.045Z,12.10
2019-03-24T13:14:05.068Z,12.10
2019-03-24T13:15:10.115Z,9.60
2019-03-24T13:16:14.976Z,11.97
2019-03-24T13:17:19.833Z,10.15
2019-03-24T13:18:24.662Z,11.57
2019-03-24T13:19:29.507Z,11.28
2019-03-24T13:20:38.283Z,9.20
2019-03-24T13:21:40.956Z,10.35
2019-03-24T13:22:45.799Z,6.83
2019-03-24T13:23:50.618Z,8.75
2019-03-24T13:24:55.462Z,9.05
2019-03-24T13:26:00.305Z,10.30
2019-03-24T13:27:05.396Z,9.85
2019-03-24T13:28:10.318Z,11.12
2019-03-24T13:29:15.153Z,8.50
2019-03-24T13:30:20.236Z,8.95
2019-03-24T13:31:25.088Z,7.90
2019-03-24T13:32:30.004Z,8.18
2019-03-24T13:33:37.707Z,8.90
2019-03-24T13:34:42.688Z,11.48
2019-03-24T13:35:50.363Z,9.20
2019-03-24T13:36:55.311Z,9.10
2019-03-24T13:38:00.260Z,8.20
2019-03-24T13:39:06.569Z,7.65
2019-03-24T13:40:11.569Z,8.98
2019-03-24T13:41:16.403Z,8.75
2019-03-24T13:42:21.232Z,5.05
2019-03-24T13:43:26.054Z,12.23
2019-03-24T13:44:30.909Z,6.92
2019-03-24T13:45:35.842Z,6.12
2019-03-24T13:46:40.705Z,7.80
2019-03-24T13:47:45.515Z,6.45
2019-03-24T13:48:50.359Z,8.33
2019-03-24T13:49:55.223Z,8.73
2019-03-24T13:51:00.149Z,6.28
2019-03-24T13:52:05.196Z,6.53
2019-03-24T13:53:10.169Z,11.33
2019-03-24T13:54:15.087Z,9.10
2019-03-24T13:55:20.031Z,7.67
2019-03-24T13:56:25.013Z,8.93
2019-03-24T13:57:29.965Z,8.78
2019-03-24T13:58:34.962Z,7.83
2019-03-24T13:59:39.879Z,10.13
2019-03-24T14:00:44.840Z,8.40